Time;durP1;ratioP1;P1;durP2;ratioP2;P2;SDS_P1;SDS_P2;PMS_P1;PMS_P2;Temp;Humidity;BMP_temperature;BMP_pressure;BME280_temperature;BME280_humidity;BME280_pressure;Samples;Min_cycle;Max_cycle;Signal;HPM_P1;HPM_P2
2022/09/20 00:01:38;;;;;;;;;12.00;10.80;;;;;16.43;54.63;99553.34;5067108;28;8858;-73
2022/09/20 00:04:07;;;;;;;;;12.00;10.00;;;;;16.39;54.21;99544.66;5065214;28;8881;-74
2022/09/20 00:06:35;;;;;;;;;13.80;13.80;;;;;16.43;54.38;99551.56;5067265;28;9663;-75
2022/09/20 00:09:05;;;;;;;;;12.80;11.60;;;;;16.45;54.41;99541.84;5067351;28;8839;-73
2022/09/20 00:11:38;;;;;;;;;8.40;8.20;;;;;16.51;53.97;99546.09;5066617;28;8880;-74
2022/09/20 00:14:08;;;;;;;;;11.00;11.00;;;;;16.51;53.70;99543.47;5066966;28;8838;-74
2022/09/20 00:16:39;;;;;;;;;11.60;10.60;;;;;16.57;53.20;99541.53;5065690;28;8874;-73
2022/09/20 00:19:08;;;;;;;;;10.20;9.80;;;;;16.61;53.30;99539.69;5065260;28;8927;-76
2022/09/20 00:21:37;;;;;;;;;12.80;12.20;;;;;16.69;52.62;99535.13;5066584;28;8862;-74
2022/09/20 00:24:06;;;;;;;;;11.80;10.80;;;;;16.67;52.82;99536.91;5066628;28;8870;-75
2022/09/20 00:26:36;;;;;;;;;12.40;11.00;;;;;16.67;53.13;99534.28;5047312;28;8947;-73
2022/09/20 00:29:05;;;;;;;;;11.60;10.40;;;;;16.71;53.11;99537.69;5065564;28;8854;-73
2022/09/20 00:31:34;;;;;;;;;10.60;9.60;;;;;16.68;52.86;99548.31;5066540;28;8850;-75
2022/09/20 00:36:49;;;;;;;;;15.40;12.20;;;;;16.70;52.66;99530.69;5070256;28;8876;-73
2022/09/20 00:39:17;;;;;;;;;11.80;10.60;;;;;16.56;52.52;99531.91;5070942;28;8886;-73
2022/09/20 00:41:47;;;;;;;;;13.80;12.40;;;;;16.49;53.20;99534.75;5070659;28;8886;-72
2022/09/20 00:44:41;;;;;;;;;14.40;11.20;;;;;16.46;53.22;99534.81;5092051;28;8847;-75
2022/09/20 00:47:17;;;;;;;;;14.00;13.20;;;;;16.42;53.36;99535.78;5108412;28;8876;-74
2022/09/20 00:49:46;;;;;;;;;13.40;11.40;;;;;16.29;53.12;99535.22;5085606;28;9004;-73
2022/09/20 00:52:16;;;;;;;;;8.80;8.60;;;;;16.32;53.20;99528.13;5070872;28;8838;-75
2022/09/20 00:54:45;;;;;;;;;14.00;12.40;;;;;16.30;53.70;99529.94;5070289;28;8870;-74
2022/09/20 00:57:15;;;;;;;;;11.40;11.00;;;;;16.32;53.66;99533.38;5085820;28;8881;-74
2022/09/20 00:59:48;;;;;;;;;11.00;10.00;;;;;16.34;53.53;99542.09;5070610;28;8838;-74
2022/09/20 01:02:20;;;;;;;;;9.40;9.00;;;;;16.36;53.57;99542.94;5066692;28;9701;-73
2022/09/20 01:04:50;;;;;;;;;17.80;11.20;;;;;16.37;53.21;99541.19;5069852;28;9537;-75
2022/09/20 01:07:22;;;;;;;;;11.00;8.60;;;;;16.37;53.53;99544.69;5068653;28;8884;-74
2022/09/20 01:09:51;;;;;;;;;12.00;10.80;;;;;16.33;53.23;99531.59;5069696;28;8919;-75
2022/09/20 01:12:26;;;;;;;;;16.80;10.60;;;;;16.40;53.71;99535.81;5069863;28;8862;-74
2022/09/20 01:14:56;;;;;;;;;12.00;11.40;;;;;16.38;53.03;99522.69;5070021;28;8842;-73
2022/09/20 01:17:29;;;;;;;;;12.00;10.80;;;;;16.44;53.22;99528.72;5034506;28;8866;-73
2022/09/20 01:20:09;;;;;;;;;13.20;12.40;;;;;16.42;52.98;99528.75;5089777;28;8855;-74
2022/09/20 01:22:52;;;;;;;;;12.20;11.20;;;;;16.04;53.65;99519.16;5089519;28;9672;-74
2022/09/20 01:25:45;;;;;;;;;12.00;10.80;;;;;16.29;53.22;99516.81;5089649;28;8847;-73
2022/09/20 01:28:16;;;;;;;;;11.20;11.00;;;;;16.22;53.04;99516.09;5079387;28;8887;-73
2022/09/20 01:30:51;;;;;;;;;10.00;9.60;;;;;16.23;53.35;99517.81;5069319;28;8846;-74
2022/09/20 01:33:28;;;;;;;;;10.60;10.60;;;;;16.31;53.12;99521.16;5069870;28;8939;-74
2022/09/20 01:36:01;;;;;;;;;11.80;11.80;;;;;16.30;52.88;99518.53;5069303;28;8838;-73
2022/09/20 01:38:40;;;;;;;;;12.40;11.20;;;;;16.43;52.72;99512.06;5101756;28;8842;-76
2022/09/20 01:41:14;;;;;;;;;13.40;11.80;;;;;16.43;52.46;99516.47;5067320;28;9135;-74
2022/09/20 01:43:51;;;;;;;;;10.00;10.00;;;;;16.49;52.42;99505.78;5068823;28;8842;-75
2022/09/20 01:46:30;;;;;;;;;11.80;11.00;;;;;16.55;52.27;99516.16;5069514;28;8877;-74
2022/09/20 01:49:20;;;;;;;;;11.60;9.40;;;;;16.61;52.33;99510.72;5050270;28;8877;-73
2022/09/20 01:52:29;;;;;;;;;9.20;9.20;;;;;16.61;51.79;99509.88;5069290;28;8919;-73
2022/09/20 01:55:37;;;;;;;;;10.20;10.20;;;;;16.54;51.53;99512.66;5069481;28;8862;-73
2022/09/20 01:58:36;;;;;;;;;12.80;12.20;;;;;16.43;52.04;99508.59;5068036;28;8858;-74
2022/09/20 02:01:30;;;;;;;;;15.80;14.40;;;;;16.27;52.62;99503.69;5083894;28;8982;-75
2022/09/20 02:04:37;;;;;;;;;12.60;12.40;;;;;16.30;52.36;99506.25;5089292;28;8836;-75
2022/09/20 02:07:31;;;;;;;;;17.80;16.20;;;;;16.23;52.70;99507.28;5089451;28;8855;-76
2022/09/20 02:10:35;;;;;;;;;12.20;12.00;;;;;16.24;52.47;99510.78;5088309;28;8932;-73
2022/09/20 02:13:08;;;;;;;;;14.00;11.00;;;;;16.14;52.75;99507.50;5086770;28;8867;-74
2022/09/20 02:16:01;;;;;;;;;12.80;12.80;;;;;16.20;52.95;99512.66;5082951;28;9631;-73
2022/09/20 02:18:44;;;;;;;;;13.60;13.20;;;;;16.18;52.74;99503.91;5068760;28;8873;-72
2022/09/20 02:21:24;;;;;;;;;12.00;11.80;;;;;16.07;53.27;99508.59;5068864;28;9619;-74
2022/09/20 02:24:03;;;;;;;;;14.40;12.40;;;;;16.14;52.63;99515.41;5069124;28;8846;-74
2022/09/20 02:26:43;;;;;;;;;10.20;8.40;;;;;16.09;52.83;99509.41;5068046;28;8850;-72
2022/09/20 02:29:25;;;;;;;;;12.40;12.00;;;;;15.93;53.23;99501.84;5068026;28;8851;-75
2022/09/20 02:32:11;;;;;;;;;12.80;10.00;;;;;15.89;53.18;99505.44;5068478;28;9600;-74
2022/09/20 02:35:00;;;;;;;;;19.80;16.60;;;;;15.95;53.17;99505.34;5067755;28;8893;-74
2022/09/20 02:37:51;;;;;;;;;11.00;11.00;;;;;15.88;53.12;99501.13;5068023;28;8865;-73
2022/09/20 02:40:36;;;;;;;;;13.40;12.00;;;;;15.76;53.00;99504.88;5100481;28;8842;-73
2022/09/20 02:43:16;;;;;;;;;12.60;12.60;;;;;15.79;52.90;99501.31;5068094;28;8988;-73
2022/09/20 02:45:57;;;;;;;;;12.40;11.40;;;;;15.74;53.05;99493.50;5067454;28;8896;-73
2022/09/20 02:48:43;;;;;;;;;13.00;10.40;;;;;15.76;52.83;99498.75;5068063;28;8838;-74
2022/09/20 02:51:20;;;;;;;;;11.20;11.20;;;;;15.66;53.05;99497.19;5067822;28;8873;-74
2022/09/20 02:54:01;;;;;;;;;12.60;10.60;;;;;15.69;52.98;99495.38;5067767;28;8936;-73
2022/09/20 02:56:38;;;;;;;;;10.00;10.00;;;;;15.74;53.14;99492.66;5067578;28;8880;-73
2022/09/20 02:59:17;;;;;;;;;16.60;12.40;;;;;15.67;53.20;99498.91;5066651;28;8857;-73
2022/09/20 03:01:56;;;;;;;;;29.50;26.00;;;;;15.69;53.26;99505.00;5079881;28;8843;-73
2022/09/20 03:04:37;;;;;;;;;24.80;24.80;;;;;15.69;53.18;99502.38;5087772;28;8868;-73
2022/09/20 03:07:19;;;;;;;;;17.80;16.00;;;;;15.73;52.78;99498.81;5080174;28;8870;-75
2022/09/20 03:09:56;;;;;;;;;15.20;13.80;;;;;15.56;53.08;99504.44;5068022;28;8854;-74
2022/09/20 03:12:33;;;;;;;;;23.20;20.80;;;;;15.69;52.94;99512.88;5067918;28;8881;-72
2022/09/20 03:15:16;;;;;;;;;44.75;39.00;;;;;15.72;52.54;99504.94;5067672;28;8882;-73
2022/09/20 03:17:52;;;;;;;;;25.00;20.60;;;;;15.54;52.98;99507.09;5066168;28;8846;-73
2022/09/20 03:20:33;;;;;;;;;18.00;15.40;;;;;15.67;53.28;99507.69;5067807;28;8872;-74
2022/09/20 03:23:15;;;;;;;;;11.40;11.00;;;;;15.53;52.71;99510.59;5048874;28;8967;-72
2022/09/20 03:25:54;;;;;;;;;16.20;12.40;;;;;15.67;52.74;99509.44;5067498;28;8848;-72
2022/09/20 03:28:38;;;;;;;;;66.00;53.00;;;;;15.77;52.57;99503.13;5067428;28;9623;-74
2022/09/20 03:31:17;;;;;;;;;23.80;23.60;;;;;15.69;52.29;99503.25;5067970;28;9682;-74
2022/09/20 03:33:56;;;;;;;;;14.20;10.80;;;;;15.67;52.29;99506.81;5067254;28;8889;-72
2022/09/20 03:36:45;;;;;;;;;12.40;12.20;;;;;15.86;52.32;99507.28;5067067;28;8846;-73
2022/09/20 03:39:47;;;;;;;;;13.80;11.00;;;;;15.88;51.69;99505.47;5067331;28;8823;-74
2022/09/20 03:42:19;;;;;;;;;12.80;11.60;;;;;15.90;51.82;99507.19;5024430;28;8876;-75
2022/09/20 03:45:21;;;;;;;;;13.60;13.60;;;;;15.82;51.94;99495.13;4991854;28;8853;-74
2022/09/20 03:48:35;;;;;;;;;25.00;25.00;;;;;16.04;51.44;99501.59;5025205;28;8871;-73
2022/09/20 03:51:17;;;;;;;;;15.60;14.80;;;;;15.86;51.56;99504.66;4935338;28;8958;-73
2022/09/20 03:54:14;;;;;;;;;11.40;11.40;;;;;16.03;51.06;99506.91;4966036;28;8901;-73
2022/09/20 03:57:06;;;;;;;;;25.40;24.40;;;;;15.98;51.33;99501.75;4966058;28;8910;-75
2022/09/20 03:59:58;;;;;;;;;39.75;35.25;;;;;16.09;51.03;99512.03;4937543;28;9003;-74
2022/09/20 04:02:53;;;;;;;;;23.00;18.80;;;;;16.17;50.86;99507.44;4966448;28;8867;-73
2022/09/20 04:05:32;;;;;;;;;10.60;10.00;;;;;16.17;50.84;99508.31;4953424;28;8851;-75
2022/09/20 04:08:12;;;;;;;;;83.25;69.50;;;;;16.28;50.01;99510.69;4980449;28;8863;-75
2022/09/20 04:10:50;;;;;;;;;27.00;25.40;;;;;16.24;50.00;99508.16;4970208;28;9349;-74
2022/09/20 04:13:34;;;;;;;;;17.00;15.80;;;;;16.35;50.04;99500.84;4969866;28;8882;-78
2022/09/20 04:16:19;;;;;;;;;12.00;10.40;;;;;16.33;49.28;99500.91;4953182;28;8872;-76
2022/09/20 04:18:55;;;;;;;;;10.80;10.60;;;;;16.36;49.62;99495.56;4983315;28;8986;-73
2022/09/20 04:21:31;;;;;;;;;10.20;9.00;;;;;16.33;49.11;99498.28;5048104;28;9673;-75
2022/09/20 04:24:05;;;;;;;;;9.60;9.00;;;;;16.38;49.30;99495.53;5034365;28;8829;-75
2022/09/20 04:26:39;;;;;;;;;12.20;11.40;;;;;16.38;49.05;99498.16;5028257;28;8847;-74
2022/09/20 04:29:25;;;;;;;;;10.00;10.00;;;;;16.51;48.80;99491.69;5088469;28;8858;-76
2022/09/20 04:32:01;;;;;;;;;9.20;8.80;;;;;16.28;49.21;99492.25;5088784;28;8849;-74
2022/09/20 04:37:28;;;;;;;;;10.00;10.00;;;;;16.34;48.95;99493.88;5089174;28;8870;-72
2022/09/20 04:40:05;;;;;;;;;6.00;6.00;;;;;16.31;48.79;99504.47;5094898;28;8885;-74
2022/09/20 04:43:12;;;;;;;;;10.80;8.40;;;;;16.40;48.66;99504.25;5073059;28;8938;-75
2022/09/20 04:46:13;;;;;;;;;11.40;11.40;;;;;16.45;48.92;99504.16;5037313;28;8850;-73
2022/09/20 04:49:16;;;;;;;;;12.80;10.00;;;;;16.42;48.74;99504.22;5018133;28;8850;-73
2022/09/20 04:52:17;;;;;;;;;12.40;11.20;;;;;16.41;49.14;99505.09;5013350;28;8885;-73
2022/09/20 04:55:19;;;;;;;;;10.00;10.00;;;;;16.47;48.82;99511.09;4937046;29;8905;-74
2022/09/20 04:58:34;;;;;;;;;11.20;11.20;;;;;15.20;50.58;99534.06;4922309;29;8912;-77
2022/09/20 05:01:42;;;;;;;;;13.00;11.80;;;;;15.13;52.40;99563.09;4911038;29;8893;-75
2022/09/20 05:04:53;;;;;;;;;10.80;9.00;;;;;15.59;51.77;99549.91;4854675;29;8855;-77
2022/09/20 05:07:59;;;;;;;;;8.40;7.20;;;;;15.54;51.83;99536.00;4855084;29;8906;-76
2022/09/20 05:11:05;;;;;;;;;11.80;10.00;;;;;15.54;52.00;99541.25;4839469;29;8982;-74
2022/09/20 05:13:45;;;;;;;;;11.40;10.00;;;;;14.79;54.27;99569.81;4799666;29;8878;-74
2022/09/20 05:16:22;;;;;;;;;9.40;8.20;;;;;14.01;57.33;99568.41;4798942;29;9047;-74
2022/09/20 05:19:13;;;;;;;;;10.00;9.00;;;;;13.81;59.36;99566.03;4798484;29;8882;-76
2022/09/20 05:22:04;;;;;;;;;16.00;13.20;;;;;13.62;59.86;99568.91;4799788;29;8897;-74
2022/09/20 05:25:20;;;;;;;;;11.00;10.60;;;;;13.41;60.72;99570.03;4799384;29;8877;-74
2022/09/20 05:27:54;;;;;;;;;12.00;12.00;;;;;14.03;59.57;99558.75;4734925;29;8913;-74
2022/09/20 05:30:33;;;;;;;;;11.60;10.00;;;;;14.20;58.58;99556.75;4771695;29;9692;-74
2022/09/20 05:33:15;;;;;;;;;11.40;11.40;;;;;14.31;58.44;99563.56;4844834;29;8888;-75
2022/09/20 05:35:53;;;;;;;;;12.60;12.40;;;;;14.66;57.47;99555.16;4864737;29;9051;-75
2022/09/20 05:38:32;;;;;;;;;16.20;14.80;;;;;14.94;56.82;99545.03;4835299;29;8887;-77
2022/09/20 05:41:12;;;;;;;;;15.60;13.20;;;;;15.35;56.25;99542.53;4872511;29;9109;-72
2022/09/20 05:43:52;;;;;;;;;13.60;12.00;;;;;15.35;56.32;99553.91;4929424;29;8855;-78
2022/09/20 05:46:33;;;;;;;;;15.20;12.00;;;;;15.55;56.37;99552.63;4929314;29;8866;-76
2022/09/20 05:49:15;;;;;;;;;16.00;12.60;;;;;15.28;55.96;99556.69;4909681;29;8857;-77
2022/09/20 05:51:59;;;;;;;;;16.20;13.80;;;;;15.31;55.37;99549.59;4947817;28;8838;-79
2022/09/20 05:54:57;;;;;;;;;17.60;14.40;;;;;15.68;54.83;99561.13;4917526;28;8917;-79
2022/09/20 05:57:35;;;;;;;;;14.40;14.40;;;;;15.70;54.17;99554.91;4895229;29;8913;-78
2022/09/20 06:00:08;;;;;;;;;15.40;13.00;;;;;15.67;54.18;99564.63;4910785;29;8863;-79
2022/09/20 06:02:52;;;;;;;;;12.00;11.80;;;;;16.14;53.48;99549.59;4935206;28;8863;-78
2022/09/20 06:05:33;;;;;;;;;15.40;12.80;;;;;16.43;53.47;99554.19;4993951;28;8866;-78
2022/09/20 06:08:18;;;;;;;;;12.60;12.60;;;;;16.66;52.89;99552.75;5014395;28;8881;-77
2022/09/20 06:11:03;;;;;;;;;15.20;14.00;;;;;16.81;51.90;99538.34;5012816;28;8855;-77
2022/09/20 06:14:02;;;;;;;;;17.40;14.00;;;;;16.87;53.01;99535.56;5007522;28;8966;-79
2022/09/20 06:16:43;;;;;;;;;14.80;14.00;;;;;16.90;53.16;99536.34;4967472;28;9029;-76
2022/09/20 06:19:22;;;;;;;;;13.60;13.20;;;;;16.84;53.32;99538.25;4950068;28;8974;-79
2022/09/20 06:21:54;;;;;;;;;14.40;12.00;;;;;16.91;53.11;99534.56;4969188;28;8872;-77
2022/09/20 06:24:42;;;;;;;;;13.40;13.00;;;;;17.12;52.49;99538.38;5005966;28;8858;-75
2022/09/20 06:27:18;;;;;;;;;16.20;14.00;;;;;17.02;52.04;99542.19;5005325;28;8858;-74
2022/09/20 06:29:53;;;;;;;;;15.00;14.00;;;;;17.03;52.71;99533.38;5005417;28;8981;-72
2022/09/20 06:32:21;;;;;;;;;12.60;12.60;;;;;16.84;52.33;99540.91;5005788;28;8885;-76
2022/09/20 06:34:51;;;;;;;;;13.40;11.60;;;;;16.88;52.23;99545.19;5003606;28;8903;-73
2022/09/20 06:43:30;;;;;;;;;12.60;12.40;;;;;16.92;52.20;99547.72;4985453;28;8848;-74
2022/09/20 06:45:59;;;;;;;;;12.00;11.00;;;;;17.11;51.99;99537.53;4969563;28;8852;-71
2022/09/20 06:48:30;;;;;;;;;14.00;13.00;;;;;16.62;52.67;99554.59;4970106;28;8959;-75
2022/09/20 06:50:59;;;;;;;;;11.60;10.00;;;;;16.45;53.59;99556.78;4971383;28;8845;-73
2022/09/20 06:53:31;;;;;;;;;16.00;13.60;;;;;16.76;53.23;99551.59;5008205;28;8859;-72
2022/09/20 06:56:01;;;;;;;;;20.80;17.40;;;;;16.36;53.43;99563.97;4993636;28;8990;-78
2022/09/20 06:58:31;;;;;;;;;16.60;14.80;;;;;16.49;54.53;99558.44;5027640;28;8983;-72
2022/09/20 07:01:00;;;;;;;;;14.80;14.40;;;;;16.51;53.77;99561.91;4945735;28;8899;-73
2022/09/20 07:03:30;;;;;;;;;15.40;14.80;;;;;16.46;53.71;99566.41;5010528;28;9625;-75
2022/09/20 07:05:59;;;;;;;;;14.00;12.40;;;;;16.58;52.84;99571.38;5017236;28;8982;-73
2022/09/20 07:08:27;;;;;;;;;15.20;13.40;;;;;16.89;52.16;99568.00;4941887;28;8886;-73
2022/09/20 07:10:56;;;;;;;;;12.00;12.00;;;;;16.21;55.16;99571.38;4990264;28;8854;-73
2022/09/20 07:13:25;;;;;;;;;12.20;11.20;;;;;16.71;53.31;99579.81;4990766;28;8984;-77
2022/09/20 07:16:02;;;;;;;;;9.80;9.00;;;;;16.08;54.85;99582.19;4989197;28;8892;-75
2022/09/20 07:18:32;;;;;;;;;14.00;12.40;;;;;16.43;54.52;99583.16;5084542;28;9665;-76
2022/09/20 07:21:01;;;;;;;;;11.60;11.60;;;;;16.32;55.59;99583.38;5067188;28;8846;-78
2022/09/20 07:23:30;;;;;;;;;10.00;10.00;;;;;16.76;53.70;99586.69;5068225;28;8869;-76
2022/09/20 07:25:59;;;;;;;;;11.20;11.00;;;;;16.14;55.06;99591.69;5067078;28;8862;-74
2022/09/20 07:28:30;;;;;;;;;13.20;12.00;;;;;16.05;56.13;99590.16;5100907;28;8858;-76
2022/09/20 07:30:58;;;;;;;;;9.60;8.60;;;;;16.67;55.05;99599.22;5066911;28;8854;-76
2022/09/20 07:33:28;;;;;;;;;11.80;10.40;;;;;16.72;54.45;99589.47;5066742;28;8896;-75
2022/09/20 07:35:57;;;;;;;;;19.80;19.80;;;;;16.55;54.77;99585.47;5067353;28;9055;-75
2022/09/20 07:38:25;;;;;;;;;17.20;13.40;;;;;16.55;55.20;99593.34;5068135;28;9987;-75
2022/09/20 07:40:56;;;;;;;;;13.60;12.00;;;;;16.99;54.14;99590.53;5067607;28;8881;-74
2022/09/20 07:43:25;;;;;;;;;12.20;11.40;;;;;17.25;52.87;99589.00;5068463;28;9633;-75
2022/09/20 07:45:54;;;;;;;;;15.60;13.20;;;;;16.95;53.11;99599.44;5070529;28;8909;-75
2022/09/20 07:48:25;;;;;;;;;14.20;13.40;;;;;16.92;54.20;99589.84;5104591;28;8831;-78
2022/09/20 07:50:56;;;;;;;;;13.40;13.40;;;;;17.45;51.83;99584.03;5104911;28;8942;-77
2022/09/20 07:53:26;;;;;;;;;9.80;9.60;;;;;17.45;52.38;99586.69;5054324;28;8861;-75
2022/09/20 07:56:02;;;;;;;;;15.00;13.00;;;;;17.77;51.34;99584.91;5102872;28;8858;-77
2022/09/20 07:58:33;;;;;;;;;13.20;12.40;;;;;17.38;52.32;99592.16;5070296;28;8988;-77
2022/09/20 08:01:03;;;;;;;;;7.60;6.80;;;;;17.48;51.43;99593.63;5071635;28;8943;-75
2022/09/20 08:03:33;;;;;;;;;10.00;10.00;;;;;16.85;53.89;99600.59;5070602;28;8823;-78
2022/09/20 08:06:05;;;;;;;;;10.20;9.00;;;;;16.70;53.56;99601.78;5095036;28;8843;-77
2022/09/20 08:08:36;;;;;;;;;8.40;8.00;;;;;17.01;53.33;99598.41;5090652;28;8843;-77
2022/09/20 08:11:06;;;;;;;;;12.80;12.20;;;;;17.25;52.81;99592.50;5091641;28;8871;-73
2022/09/20 08:13:36;;;;;;;;;10.20;9.00;;;;;17.28;52.49;99592.41;5073705;28;8883;-73
2022/09/20 08:16:26;;;;;;;;;11.40;11.20;;;;;17.07;53.67;99591.22;5090117;28;8849;-75
2022/09/20 08:18:56;;;;;;;;;7.60;7.60;;;;;16.97;53.45;99591.50;5082827;28;8886;-73
2022/09/20 08:21:30;;;;;;;;;9.40;8.00;;;;;17.64;51.48;99581.75;5069953;28;8990;-75
2022/09/20 08:23:59;;;;;;;;;8.40;7.40;;;;;17.49;51.79;99584.81;5104034;28;8949;-74
2022/09/20 08:26:30;;;;;;;;;14.00;10.00;;;;;17.56;52.19;99589.03;5070310;28;8870;-72
2022/09/20 08:29:00;;;;;;;;;7.60;6.80;;;;;17.04;53.43;99593.06;5074274;28;9060;-75
2022/09/20 08:31:33;;;;;;;;;7.40;7.40;;;;;16.84;54.08;99591.84;5103259;28;9023;-73
2022/09/20 08:34:03;;;;;;;;;8.80;8.00;;;;;16.90;54.31;99588.16;5110675;28;8884;-76
2022/09/20 08:36:36;;;;;;;;;5.80;5.80;;;;;17.63;50.50;99584.41;5073075;28;9611;-76
2022/09/20 08:39:05;;;;;;;;;7.00;6.40;;;;;17.26;51.64;99586.31;5072953;28;8889;-73
2022/09/20 08:41:58;;;;;;;;;6.60;6.60;;;;;17.76;50.85;99587.56;5070397;28;8877;-73
2022/09/20 08:44:31;;;;;;;;;7.40;5.00;;;;;18.26;49.61;99587.81;5070263;28;9580;-75
2022/09/20 08:47:08;;;;;;;;;5.20;5.20;;;;;17.97;49.51;99584.31;5070729;28;8826;-77
2022/09/20 08:49:38;;;;;;;;;6.00;6.00;;;;;17.78;50.67;99575.19;5012072;28;9686;-75
2022/09/20 08:52:17;;;;;;;;;5.20;5.20;;;;;18.38;47.80;99574.25;5028821;28;8906;-74
2022/09/20 08:54:46;;;;;;;;;6.00;5.00;;;;;18.10;49.12;99582.16;5028439;28;8898;-75
2022/09/20 08:57:17;;;;;;;;;6.60;6.00;;;;;18.00;49.25;99575.47;5011883;28;9000;-76
2022/09/20 08:59:46;;;;;;;;;6.40;6.40;;;;;17.89;50.16;99576.63;5012380;28;9009;-72
2022/09/20 09:02:17;;;;;;;;;6.80;6.80;;;;;18.08;49.40;99573.44;4981176;28;8860;-74
2022/09/20 09:04:48;;;;;;;;;6.40;5.00;;;;;17.52;51.22;99574.16;5016203;28;8871;-74
2022/09/20 09:07:21;;;;;;;;;6.40;5.60;;;;;17.62;50.50;99572.16;5018039;28;8875;-72
2022/09/20 09:09:53;;;;;;;;;6.40;6.40;;;;;18.05;48.59;99576.16;5013536;28;8867;-76
2022/09/20 09:12:24;;;;;;;;;8.20;8.20;;;;;17.49;50.31;99569.84;5029673;28;8840;-73
2022/09/20 09:14:58;;;;;;;;;6.60;6.20;;;;;17.14;50.79;99584.91;5059426;28;8918;-75
2022/09/20 09:17:28;;;;;;;;;6.40;5.60;;;;;16.85;51.61;99576.88;5086565;28;8877;-74
2022/09/20 09:19:59;;;;;;;;;7.00;7.00;;;;;16.91;51.63;99571.44;5086794;28;8866;-74
2022/09/20 09:22:36;;;;;;;;;8.20;8.20;;;;;16.78;51.40;99565.59;5103064;28;8858;-75
2022/09/20 09:25:23;;;;;;;;;5.60;5.60;;;;;16.83;51.01;99568.16;5069405;28;8842;-76
2022/09/20 09:27:55;;;;;;;;;6.40;6.20;;;;;16.50;52.08;99565.41;5086178;28;8899;-77
2022/09/20 09:30:27;;;;;;;;;6.80;5.60;;;;;16.79;51.81;99558.56;5069281;28;8850;-73
2022/09/20 09:33:25;;;;;;;;;5.80;5.80;;;;;17.23;50.16;99553.91;5053855;28;9368;-76
2022/09/20 09:35:57;;;;;;;;;6.20;6.20;;;;;17.56;49.62;99538.91;5088351;28;8964;-71
2022/09/20 09:38:31;;;;;;;;;6.40;4.60;;;;;18.04;49.21;99533.09;5074993;28;8878;-76
2022/09/20 09:41:01;;;;;;;;;5.00;5.00;;;;;18.42;47.52;99535.41;5072353;28;8836;-73
2022/09/20 09:43:31;;;;;;;;;5.00;4.00;;;;;18.07;47.79;99526.84;5105824;28;8835;-74
2022/09/20 09:46:20;;;;;;;;;4.00;4.00;;;;;18.22;47.03;99528.13;5090079;28;8862;-72
2022/09/20 09:49:06;;;;;;;;;5.00;5.00;;;;;18.92;46.86;99537.28;5089697;28;9108;-75
2022/09/20 09:51:42;;;;;;;;;3.00;3.00;;;;;19.06;46.08;99530.59;5105560;28;8844;-72
2022/09/20 09:54:18;;;;;;;;;6.20;5.20;;;;;18.86;45.75;99525.13;5089833;28;8945;-74
2022/09/20 09:57:05;;;;;;;;;5.60;5.60;;;;;19.26;44.86;99524.59;5090062;28;8840;-73
2022/09/20 09:59:46;;;;;;;;;4.00;4.00;;;;;19.69;43.66;99508.88;5090219;28;8880;-75
2022/09/20 10:02:53;;;;;;;;;5.40;4.80;;;;;19.84;42.60;99508.31;5070667;28;8844;-76
2022/09/20 10:05:27;;;;;;;;;3.60;3.60;;;;;18.68;43.46;99521.34;5045712;28;8860;-75
2022/09/20 10:08:10;;;;;;;;;4.00;3.00;;;;;18.60;43.99;99516.31;5047028;28;8905;-77
2022/09/20 10:10:56;;;;;;;;;5.00;4.20;;;;;18.67;44.56;99512.53;5029758;28;8875;-74
2022/09/20 10:13:34;;;;;;;;;4.60;4.20;;;;;18.59;43.86;99516.38;5030058;28;8970;-73
2022/09/20 10:16:17;;;;;;;;;5.00;5.00;;;;;19.06;44.24;99506.81;5021776;28;8845;-74
2022/09/20 10:18:55;;;;;;;;;4.60;4.60;;;;;19.35;43.39;99504.88;5026616;28;8976;-75
2022/09/20 10:21:40;;;;;;;;;7.00;7.00;;;;;19.19;43.81;99509.03;5010481;28;8850;-74
2022/09/20 10:24:25;;;;;;;;;6.40;6.40;;;;;18.64;45.08;99512.66;5026363;28;8858;-74
2022/09/20 10:27:14;;;;;;;;;11.60;11.60;;;;;18.15;47.06;99506.38;5010252;28;8871;-73
2022/09/20 10:30:03;;;;;;;;;4.80;4.80;;;;;17.19;51.25;99533.84;4993363;28;8989;-73
2022/09/20 10:32:48;;;;;;;;;5.20;5.00;;;;;16.23;59.57;99546.75;5009999;28;8886;-76
2022/09/20 10:35:28;;;;;;;;;4.40;4.40;;;;;15.50;63.77;99544.84;5026413;28;8855;-73
2022/09/20 10:38:12;;;;;;;;;5.80;5.80;;;;;15.80;63.21;99547.72;5026135;28;8882;-75
2022/09/20 10:43:57;;;;;;;;;9.20;7.40;;;;;15.55;61.75;99536.84;5049145;28;8846;-73
2022/09/20 10:46:48;;;;;;;;;5.60;4.20;;;;;15.67;60.92;99548.88;5068330;28;8880;-76
2022/09/20 10:49:34;;;;;;;;;11.20;11.00;;;;;15.70;63.62;99544.41;5068073;28;8882;-76
2022/09/20 10:52:16;;;;;;;;;10.00;8.80;;;;;15.76;61.73;99538.19;5068125;28;8862;-76
2022/09/20 10:55:11;;;;;;;;;4.00;4.00;;;;;16.14;61.94;99534.69;5068355;28;8891;-73
2022/09/20 10:58:13;;;;;;;;;2.80;2.80;;;;;16.60;59.25;99527.44;5045600;28;8897;-73
2022/09/20 11:00:52;;;;;;;;;3.20;3.20;;;;;16.66;56.61;99535.19;5046345;28;8995;-74
2022/09/20 11:03:37;;;;;;;;;3.60;2.00;;;;;16.67;51.74;99528.13;5047441;28;8854;-77
2022/09/20 11:06:17;;;;;;;;;3.80;3.60;;;;;16.82;54.17;99527.75;4989251;28;8862;-74
2022/09/20 11:08:50;;;;;;;;;4.60;4.60;;;;;17.01;54.23;99524.66;4989229;28;8866;-75
2022/09/20 11:11:23;;;;;;;;;2.40;2.40;;;;;16.90;52.74;99522.28;5005828;28;8856;-76
2022/09/20 11:14:00;;;;;;;;;4.80;4.60;;;;;17.00;53.78;99529.06;4989926;28;8824;-75
2022/09/20 11:16:38;;;;;;;;;5.60;5.60;;;;;17.40;54.21;99516.53;5006632;28;8993;-76
2022/09/20 11:19:19;;;;;;;;;8.00;8.00;;;;;17.97;54.58;99517.50;4992219;28;8856;-74
2022/09/20 11:21:53;;;;;;;;;6.60;5.80;;;;;18.22;50.13;99504.38;5008626;28;8852;-76
2022/09/20 11:24:31;;;;;;;;;4.20;4.20;;;;;18.46;48.06;99498.28;4950579;28;9625;-75
2022/09/20 11:27:05;;;;;;;;;12.00;8.60;;;;;18.53;47.74;99501.59;4966199;28;8951;-77
2022/09/20 11:29:41;;;;;;;;;4.40;4.00;;;;;18.84;48.32;99500.56;4950857;28;8991;-75
2022/09/20 11:32:16;;;;;;;;;5.80;4.80;;;;;18.73;47.14;99492.09;4934690;28;8867;-75
2022/09/20 11:34:52;;;;;;;;;3.60;3.60;;;;;18.62;46.41;99498.63;4987914;28;8931;-73
2022/09/20 11:37:25;;;;;;;;;3.00;2.00;;;;;18.56;45.30;99492.69;5046016;28;8852;-73
2022/09/20 11:39:55;;;;;;;;;2.80;2.80;;;;;18.74;45.85;99496.50;5064817;28;8864;-77
2022/09/20 11:42:28;;;;;;;;;2.00;2.00;;;;;18.87;43.64;99482.81;5057255;28;9743;-77
2022/09/20 11:44:57;;;;;;;;;5.20;5.00;;;;;19.15;46.14;99486.22;5048759;28;8844;-74
2022/09/20 11:47:33;;;;;;;;;4.80;4.80;;;;;19.95;45.93;99476.13;5065143;28;8844;-75
2022/09/20 11:51:06;;;;;;;;;5.00;4.80;;;;;20.61;43.73;99469.94;5048389;28;8855;-80
2022/09/20 11:53:52;;;;;;;;;2.80;2.00;;;;;20.68;39.46;99465.19;4967067;28;9005;-74
2022/09/20 11:56:25;;;;;;;;;4.60;4.60;;;;;20.84;38.49;99458.31;4935021;28;8852;-74
2022/09/20 11:58:57;;;;;;;;;3.80;2.80;;;;;20.09;37.61;99466.78;4970051;28;8856;-76
2022/09/20 12:01:31;;;;;;;;;2.60;2.60;;;;;19.64;39.23;99466.75;4980931;28;8897;-75
2022/09/20 12:04:05;;;;;;;;;1.40;1.40;;;;;19.46;39.38;99478.03;4989914;28;8870;-75
2022/09/20 12:07:00;;;;;;;;;2.00;2.00;;;;;19.21;40.08;99470.16;4973390;28;8846;-78
2022/09/20 12:09:39;;;;;;;;;3.00;3.00;;;;;18.93;40.78;99480.88;5005854;28;9013;-74
2022/09/20 12:12:19;;;;;;;;;3.40;3.00;;;;;18.61;42.44;99482.84;5006518;28;8878;-74
2022/09/20 12:14:55;;;;;;;;;6.00;5.40;;;;;18.44;43.76;99486.91;4987127;28;8977;-77
2022/09/20 12:18:01;;;;;;;;;5.00;5.00;;;;;18.54;44.90;99473.41;4989957;28;8843;-76
2022/09/20 12:21:03;;;;;;;;;5.00;3.60;;;;;18.64;44.17;99478.31;4989834;28;8878;-76
2022/09/20 12:24:01;;;;;;;;;5.80;5.80;;;;;19.18;41.93;99470.28;4965329;28;8867;-73
2022/09/20 12:26:42;;;;;;;;;5.00;5.00;;;;;19.53;41.37;99473.34;5005629;28;8878;-76
2022/09/20 12:29:51;;;;;;;;;5.20;5.20;;;;;19.76;41.13;99469.88;5044484;28;8898;-71
2022/09/20 12:32:53;;;;;;;;;5.60;5.00;;;;;20.43;41.44;99464.47;5092780;28;8886;-76
2022/09/20 12:36:25;;;;;;;;;2.40;1.00;;;;;21.04;40.37;99454.78;5090755;28;8855;-74
2022/09/20 12:39:00;;;;;;;;;6.20;6.20;;;;;20.76;39.79;99455.16;5090464;28;8840;-76
2022/09/20 12:41:44;;;;;;;;;7.80;6.60;;;;;21.29;39.69;99448.34;5090219;28;8882;-74
2022/09/20 12:44:31;;;;;;;;;3.80;3.80;;;;;21.70;39.34;99457.06;5090426;28;8855;-77
2022/09/20 12:47:02;;;;;;;;;6.80;5.40;;;;;21.64;39.93;99448.53;5072391;28;8934;-76